createdAt,value
2023-01-03T00:00:21.074Z,102464.06
2023-01-03T00:05:23.703Z,102452.31
2023-01-03T00:10:26.147Z,102453.59
2023-01-03T00:15:28.676Z,102448.19
2023-01-03T00:20:31.153Z,102451.31
2023-01-03T00:25:33.606Z,102455.00
2023-01-03T00:30:39.227Z,102452.59
2023-01-03T00:35:41.699Z,102452.34
2023-01-03T00:40:46.191Z,102450.53
2023-01-03T00:45:48.688Z,102450.03
2023-01-03T00:50:51.182Z,102449.03
2023-01-03T00:55:54.508Z,102456.44
2023-01-03T01:01:18.794Z,102455.34
2023-01-03T01:06:24.367Z,102458.72
2023-01-03T01:11:28.376Z,102460.03
2023-01-03T01:16:32.717Z,102446.59
2023-01-03T01:21:35.657Z,102453.50
2023-01-03T01:26:38.577Z,102463.56
2023-01-03T01:31:41.790Z,102453.97
2023-01-03T01:36:45.782Z,102449.56
2023-01-03T01:42:08.551Z,102445.34
2023-01-03T01:47:24.975Z,102433.78
2023-01-03T01:52:30.376Z,102420.00
2023-01-03T01:57:36.326Z,102441.78
2023-01-03T02:02:41.998Z,102445.97
2023-01-03T02:07:47.717Z,102453.75
2023-01-03T02:13:05.886Z,102452.66
2023-01-03T02:18:39.094Z,102452.56
2023-01-03T02:24:07.292Z,102457.34
2023-01-03T02:29:20.722Z,102459.25
2023-01-03T02:34:36.673Z,102459.44
2023-01-03T02:39:46.834Z,102453.50
2023-01-03T02:45:08.098Z,102458.69
2023-01-03T02:50:12.450Z,102469.53
2023-01-03T02:55:20.687Z,102466.50
2023-01-03T03:00:26.592Z,102459.13
2023-01-03T03:05:34.380Z,102469.44
2023-01-03T03:10:58.321Z,102475.56
2023-01-03T03:16:08.037Z,102490.94
2023-01-03T03:21:35.453Z,102474.13
2023-01-03T03:26:42.399Z,102478.94
2023-01-03T03:31:49.548Z,102476.13
2023-01-03T03:37:17.071Z,102485.81
2023-01-03T03:42:53.323Z,102476.41
2023-01-03T03:48:06.467Z,102483.16
2023-01-03T03:53:11.919Z,102480.22
2023-01-03T03:58:23.246Z,102485.25
2023-01-03T04:03:26.679Z,102479.06
2023-01-03T04:08:29.760Z,102480.00
2023-01-03T04:13:36.828Z,102488.53
2023-01-03T04:18:39.352Z,102490.50
2023-01-03T04:23:41.877Z,102496.41
2023-01-03T04:28:44.376Z,102505.94
2023-01-03T04:33:46.912Z,102512.06
2023-01-03T04:38:49.676Z,102504.69
2023-01-03T04:44:05.043Z,102503.19
2023-01-03T04:49:10.138Z,102507.66
2023-01-03T04:54:12.593Z,102496.34
2023-01-03T04:59:15.082Z,102501.00
2023-01-03T05:04:17.957Z,102508.09
2023-01-03T05:09:20.449Z,102506.66
2023-01-03T05:14:23.136Z,102481.22
2023-01-03T05:19:25.578Z,102469.75
2023-01-03T05:24:46.574Z,102490.25
2023-01-03T05:29:53.620Z,102489.66
2023-01-03T05:34:56.852Z,102475.34
2023-01-03T05:39:59.341Z,102481.09
2023-01-03T05:45:01.845Z,102472.72
2023-01-03T05:50:07.611Z,102428.75
2023-01-03T05:55:11.238Z,102478.34
2023-01-03T06:00:16.072Z,102477.00
2023-01-03T06:05:18.639Z,102483.00
2023-01-03T06:10:21.340Z,102475.22
2023-01-03T06:15:24.029Z,102480.88
2023-01-03T06:20:27.684Z,102471.03
2023-01-03T06:25:30.126Z,102482.31
2023-01-03T06:30:32.721Z,102458.34
2023-01-03T06:35:35.275Z,102474.41
2023-01-03T06:40:43.977Z,102474.06
2023-01-03T06:46:06.531Z,102471.31
2023-01-03T06:51:29.624Z,102462.91
2023-01-03T06:56:32.089Z,102470.81
2023-01-03T07:01:34.687Z,102471.19
2023-01-03T07:06:37.284Z,102463.72
2023-01-03T07:11:40.892Z,102455.06
2023-01-03T07:16:47.675Z,102443.69
2023-01-03T07:21:50.173Z,102434.06
2023-01-03T07:26:53.792Z,102442.31
2023-01-03T07:31:56.240Z,102448.78
2023-01-03T07:36:58.699Z,102436.50
2023-01-03T07:42:19.535Z,102436.13
2023-01-03T07:47:22.007Z,102423.84
2023-01-03T07:52:24.644Z,102417.47
2023-01-03T07:57:28.042Z,102407.03
2023-01-03T08:02:30.655Z,102399.81
2023-01-03T08:07:33.276Z,102396.91
2023-01-03T08:12:54.107Z,102404.13
2023-01-03T08:17:56.532Z,102380.72
2023-01-03T08:23:00.755Z,102364.44
2023-01-03T08:28:04.359Z,102349.97
2023-01-03T08:33:10.699Z,102335.63
2023-01-03T08:38:17.151Z,102313.41
2023-01-03T08:43:20.408Z,102304.72
2023-01-03T08:48:23.525Z,102292.84
2023-01-03T08:53:26.036Z,102294.56
2023-01-03T08:58:28.634Z,102282.75
2023-01-03T09:03:31.372Z,102259.78
2023-01-03T09:08:35.706Z,102269.19
2023-01-03T09:13:38.544Z,102250.13
2023-01-03T09:18:42.454Z,102261.03
2023-01-03T09:23:45.326Z,102261.88
2023-01-03T09:28:51.247Z,102252.13
2023-01-03T09:33:53.863Z,102239.59
2023-01-03T09:38:56.418Z,102216.66
2023-01-03T09:44:08.282Z,102179.63
2023-01-03T09:49:17.026Z,102185.19
2023-01-03T09:54:52.255Z,102172.25
2023-01-03T10:00:13.504Z,102158.00
2023-01-03T10:05:28.066Z,102148.31
2023-01-03T10:10:39.271Z,102139.31
2023-01-03T10:15:56.788Z,102126.75
2023-01-03T10:21:08.132Z,102113.34
2023-01-03T10:26:12.576Z,102103.06
2023-01-03T10:31:27.112Z,102090.25
2023-01-03T10:36:29.635Z,102076.53
2023-01-03T10:41:37.466Z,102071.00
2023-01-03T10:46:51.453Z,102073.56
2023-01-03T10:51:59.111Z,102059.22
2023-01-03T10:57:01.923Z,102071.06
2023-01-03T11:02:15.404Z,102058.66
2023-01-03T11:07:20.216Z,102040.72
2023-01-03T11:12:40.522Z,102039.56
2023-01-03T11:18:01.213Z,102020.28
2023-01-03T11:23:16.939Z,101999.78
2023-01-03T11:28:47.048Z,101991.56
2023-01-03T11:34:16.618Z,101966.06
2023-01-03T11:39:27.155Z,101963.56
2023-01-03T11:44:48.980Z,101956.19
2023-01-03T11:50:09.308Z,101950.25
2023-01-03T11:55:34.833Z,101949.72
2023-01-03T12:01:04.707Z,101955.88
2023-01-03T12:06:18.121Z,101939.56
2023-01-03T12:11:34.386Z,101931.41
2023-01-03T12:16:45.616Z,101922.81
2023-01-03T12:22:43.345Z,101917.66
2023-01-03T12:27:52.340Z,101910.03
2023-01-03T12:33:00.387Z,101901.56
2023-01-03T12:38:06.447Z,101895.03
2023-01-03T12:43:27.554Z,101892.91
2023-01-03T12:48:35.618Z,101893.06
2023-01-03T12:53:47.455Z,101885.47
2023-01-03T12:58:52.997Z,101877.53
2023-01-03T13:04:27.579Z,101839.88
2023-01-03T13:09:37.036Z,101839.41
2023-01-03T13:14:55.925Z,101816.16
2023-01-03T13:20:31.948Z,101804.91
2023-01-03T13:25:37.812Z,101791.69
2023-01-03T13:30:43.548Z,101780.06
2023-01-03T13:35:46.079Z,101770.59
2023-01-03T13:41:17.000Z,101755.16
2023-01-03T13:46:33.129Z,101753.56
2023-01-03T13:51:47.667Z,101754.75
2023-01-03T13:56:50.205Z,101751.75
2023-01-03T14:02:12.682Z,101748.91
2023-01-03T14:07:52.480Z,101749.28
2023-01-03T14:13:00.506Z,101738.81
2023-01-03T14:18:28.727Z,101718.59
2023-01-03T14:23:58.352Z,101697.66
2023-01-03T14:28:56.163Z,101687.88
2023-01-03T14:34:01.581Z,101677.78
2023-01-03T14:39:05.495Z,101662.69
2023-01-03T14:44:16.100Z,101667.19
2023-01-03T14:49:44.109Z,101647.75
2023-01-03T14:54:50.072Z,101630.50
2023-01-03T14:59:55.211Z,101640.13
2023-01-03T15:05:01.398Z,101631.19
2023-01-03T15:10:13.332Z,101622.53
2023-01-03T15:15:39.133Z,101618.56
2023-01-03T15:20:45.357Z,101609.94
2023-01-03T15:25:47.948Z,101600.34
2023-01-03T15:30:51.404Z,101574.47
2023-01-03T15:35:56.438Z,101593.69
2023-01-03T15:41:00.055Z,101577.13
2023-01-03T15:46:09.310Z,101569.69
2023-01-03T15:51:12.053Z,101575.81
2023-01-03T15:56:24.550Z,101562.41
2023-01-03T16:01:27.199Z,101544.31
2023-01-03T16:06:30.346Z,101536.66
2023-01-03T16:11:34.591Z,101523.50
2023-01-03T16:16:44.381Z,101526.84
2023-01-03T16:22:16.073Z,101509.41
2023-01-03T16:27:22.135Z,101507.59
2023-01-03T16:32:28.273Z,101498.81
2023-01-03T16:37:31.363Z,101481.50
2023-01-03T16:42:33.862Z,101478.69
2023-01-03T16:47:36.678Z,101471.56
2023-01-03T16:52:48.035Z,101450.97
2023-01-03T16:57:54.596Z,101454.59
2023-01-03T17:03:01.461Z,101451.53
2023-01-03T17:08:21.640Z,101443.06
2023-01-03T17:13:31.745Z,101453.47
2023-01-03T17:18:40.477Z,101449.47
2023-01-03T17:23:45.736Z,101442.13
2023-01-03T17:28:49.594Z,101434.72
2023-01-03T17:33:52.963Z,101413.91
2023-01-03T17:39:00.239Z,101423.75
2023-01-03T17:44:02.720Z,101404.13
2023-01-03T17:49:24.685Z,101388.50
2023-01-03T17:54:35.523Z,101396.56
2023-01-03T17:59:38.038Z,101379.19
2023-01-03T18:05:13.651Z,101382.53
2023-01-03T18:10:03.287Z,101378.38
2023-01-03T18:15:15.654Z,101371.72
2023-01-03T18:20:20.283Z,101359.44
2023-01-03T18:25:26.185Z,101357.69
2023-01-03T18:30:28.918Z,101346.25
2023-01-03T18:35:37.703Z,101340.63
2023-01-03T18:40:41.383Z,101342.75
2023-01-03T18:45:44.232Z,101336.97
2023-01-03T18:50:55.688Z,101334.03
2023-01-03T18:56:01.404Z,101336.13
2023-01-03T19:01:05.857Z,101323.88
2023-01-03T19:06:17.922Z,101303.44
2023-01-03T19:11:29.231Z,101294.47
2023-01-03T19:16:35.184Z,101274.25
2023-01-03T19:21:41.197Z,101272.16
2023-01-03T19:27:04.756Z,101290.81
2023-01-03T19:32:14.530Z,101292.19
2023-01-03T19:37:17.199Z,101287.50
2023-01-03T19:42:39.573Z,101275.38
2023-01-03T19:47:42.241Z,101269.97
2023-01-03T19:52:46.344Z,101277.81
2023-01-03T19:57:51.961Z,101256.28
2023-01-03T20:02:58.468Z,101234.25
2023-01-03T20:08:11.618Z,101251.41
2023-01-03T20:13:20.384Z,101260.03
2023-01-03T20:18:31.360Z,101271.72
2023-01-03T20:23:38.099Z,101251.56
2023-01-03T20:28:40.549Z,101252.56
2023-01-03T20:33:43.603Z,101255.53
2023-01-03T20:38:48.785Z,101242.00
2023-01-03T20:43:52.544Z,101236.38
2023-01-03T20:48:57.543Z,101228.91
2023-01-03T20:53:59.992Z,101251.06
2023-01-03T20:59:03.868Z,101232.59
2023-01-03T21:04:07.058Z,101217.06
2023-01-03T21:09:11.716Z,101201.44
2023-01-03T21:14:14.973Z,101192.94
2023-01-03T21:19:21.475Z,101210.81
2023-01-03T21:24:27.257Z,101191.69
2023-01-03T21:29:29.804Z,101186.66
2023-01-03T21:34:32.599Z,101192.44
2023-01-03T21:39:35.068Z,101190.78
2023-01-03T21:44:38.239Z,101185.13
2023-01-03T21:49:41.722Z,101194.81
2023-01-03T21:54:44.172Z,101201.97
2023-01-03T21:59:46.656Z,101205.06
2023-01-03T22:04:49.115Z,101193.00
2023-01-03T22:10:09.893Z,101198.00
2023-01-03T22:15:12.914Z,101194.09
2023-01-03T22:20:17.185Z,101183.38
2023-01-03T22:25:22.390Z,101185.31
2023-01-03T22:30:25.179Z,101193.75
2023-01-03T22:35:29.044Z,101188.44
2023-01-03T22:40:31.597Z,101186.03
2023-01-03T22:45:34.558Z,101192.34
2023-01-03T22:50:37.073Z,101204.47
2023-01-03T22:55:42.716Z,101205.63
2023-01-03T23:00:46.030Z,101220.72
2023-01-03T23:05:48.600Z,101225.88
2023-01-03T23:11:10.980Z,101239.16
2023-01-03T23:16:13.514Z,101243.00
2023-01-03T23:21:16.077Z,101257.38
2023-01-03T23:26:19.057Z,101254.72
2023-01-03T23:31:21.685Z,101256.84
2023-01-03T23:36:24.462Z,101258.31
2023-01-03T23:41:26.922Z,101264.63
2023-01-03T23:46:29.539Z,101269.94
2023-01-03T23:51:32.062Z,101268.47
2023-01-03T23:56:34.616Z,101279.28
